Guarulhos - Governador André Franco Montoro International Airport
SBGR : rendu visible

Aérodrome :











RETROUVEZ-NOUS SUR...

 
LOGIN :

S'inscrire | Disclaimer

   EN    FR    IT 

 









Légende :    VFR   VFR Marginal   IFR   IFR Intensif   IFR Très Intensif
Visi : 
Plafond : 
>= 8 km
>= 3000ft
5 à 8 km
1000 à 3000 ft
1500m à 5 km
500 à 1000 ft
800 à 1500m
200 à 500 ft
< 800m
< 200 ft
Symboles :   Orages  Brouillard  Fortes neiges  Fortes précipitations  Vent > 20 kt






- Altitude de l'aérodrome : 2459 ft
- Code IATA : GRU


SBGR - Guarulhos - Governador André Franco Montoro International

DERNIER METAR :
  • 270300Z 30005KT CAVOK 12/05 Q1017

METARs EXPIRÉS :
  • 270200Z 28008KT CAVOK 13/05 Q1017
  • 270100Z 26006KT CAVOK 12/05 Q1017

TAF TAF SBGR
Valide du 27 à 00h jusqu'au 28 à 06h UTC


262200Z 2700/2806 29010KT CAVOK TN09/2710Z TX20/2718Z
BECMG 2714/2716 27008KT
BECMG 2717/2719 22007KT
BECMG 2719/2721 18010KT
BECMG 2721/2723 14007KT 8000 SCT020
BECMG 2804/2806 11007KT BKN012 RMK PHM
FIR SBCW / Amérique du Sud



MET'MAP, la Météo Aéronautique d'un coup d'oeil ! - Copyright ORBIFLY Décembre 2007 - Disclaimer

ORBIFLY MET'MAP TEAM :

Programmation & Développement : Alexandra Zaïnal
Sur une idée originale de : Baudouin d'Aumeries
Assistance à la programmation : Marc-Olivier Méhu
Soutien technique & logistique : Manuel Goepfert

Contact : metmap@orbifly.com




SOURCES & CREDITS :

   NOAA       Earth
Advisory